sensor_id;sensor_type;location;lat;lon;timestamp;temperature;humidity
20081;DHT22;10200;49.232;9.222;2023-02-28T00:00:20;0.90;90.60
20081;DHT22;10200;49.232;9.222;2023-02-28T00:02:46;0.90;90.50
20081;DHT22;10200;49.232;9.222;2023-02-28T00:05:15;0.90;90.80
20081;DHT22;10200;49.232;9.222;2023-02-28T00:07:41;0.90;90.80
20081;DHT22;10200;49.232;9.222;2023-02-28T00:10:12;0.90;90.80
20081;DHT22;10200;49.232;9.222;2023-02-28T00:12:39;0.90;90.90
20081;DHT22;10200;49.232;9.222;2023-02-28T00:15:10;0.90;91.00
20081;DHT22;10200;49.232;9.222;2023-02-28T00:17:36;0.80;91.30
20081;DHT22;10200;49.232;9.222;2023-02-28T00:20:03;0.80;91.30
20081;DHT22;10200;49.232;9.222;2023-02-28T00:22:30;0.80;91.30
20081;DHT22;10200;49.232;9.222;2023-02-28T00:24:56;0.80;91.40
20081;DHT22;10200;49.232;9.222;2023-02-28T00:27:22;0.70;91.60
20081;DHT22;10200;49.232;9.222;2023-02-28T00:29:47;0.70;91.80
20081;DHT22;10200;49.232;9.222;2023-02-28T00:32:13;0.70;92.00
20081;DHT22;10200;49.232;9.222;2023-02-28T00:34:39;0.70;92.00
20081;DHT22;10200;49.232;9.222;2023-02-28T00:37:09;0.70;92.30
20081;DHT22;10200;49.232;9.222;2023-02-28T00:39:36;0.70;92.40
20081;DHT22;10200;49.232;9.222;2023-02-28T00:42:03;0.60;92.50
20081;DHT22;10200;49.232;9.222;2023-02-28T00:44:29;0.60;92.70
20081;DHT22;10200;49.232;9.222;2023-02-28T00:46:55;0.60;92.80
20081;DHT22;10200;49.232;9.222;2023-02-28T00:49:22;0.60;92.80
20081;DHT22;10200;49.232;9.222;2023-02-28T00:51:48;0.60;93.10
20081;DHT22;10200;49.232;9.222;2023-02-28T00:54:14;0.60;93.10
20081;DHT22;10200;49.232;9.222;2023-02-28T00:56:40;0.60;93.20
20081;DHT22;10200;49.232;9.222;2023-02-28T00:59:05;0.50;93.30
20081;DHT22;10200;49.232;9.222;2023-02-28T01:01:31;0.50;93.40
20081;DHT22;10200;49.232;9.222;2023-02-28T01:03:56;0.50;93.60
20081;DHT22;10200;49.232;9.222;2023-02-28T01:06:22;0.50;93.60
20081;DHT22;10200;49.232;9.222;2023-02-28T01:08:48;0.50;93.60
20081;DHT22;10200;49.232;9.222;2023-02-28T01:11:15;0.50;93.90
20081;DHT22;10200;49.232;9.222;2023-02-28T01:13:42;0.50;93.80
20081;DHT22;10200;49.232;9.222;2023-02-28T01:16:08;0.50;94.10
20081;DHT22;10200;49.232;9.222;2023-02-28T01:18:34;0.40;94.00
20081;DHT22;10200;49.232;9.222;2023-02-28T01:21:11;0.40;94.20
20081;DHT22;10200;49.232;9.222;2023-02-28T01:23:38;0.40;94.40
20081;DHT22;10200;49.232;9.222;2023-02-28T01:28:31;0.40;94.20
20081;DHT22;10200;49.232;9.222;2023-02-28T01:30:56;0.40;94.30
20081;DHT22;10200;49.232;9.222;2023-02-28T01:33:22;0.40;94.40
20081;DHT22;10200;49.232;9.222;2023-02-28T01:35:48;0.30;94.60
20081;DHT22;10200;49.232;9.222;2023-02-28T01:38:13;0.30;94.70
20081;DHT22;10200;49.232;9.222;2023-02-28T01:40:39;0.30;94.70
20081;DHT22;10200;49.232;9.222;2023-02-28T01:43:16;0.30;95.20
20081;DHT22;10200;49.232;9.222;2023-02-28T01:45:44;0.30;95.10
20081;DHT22;10200;49.232;9.222;2023-02-28T01:48:10;0.30;94.90
20081;DHT22;10200;49.232;9.222;2023-02-28T01:50:41;0.30;95.10
20081;DHT22;10200;49.232;9.222;2023-02-28T01:53:10;0.20;95.30
20081;DHT22;10200;49.232;9.222;2023-02-28T01:55:38;0.20;95.40
20081;DHT22;10200;49.232;9.222;2023-02-28T01:58:06;0.20;95.40
20081;DHT22;10200;49.232;9.222;2023-02-28T02:00:32;0.20;95.60
20081;DHT22;10200;49.232;9.222;2023-02-28T02:03:06;0.20;95.60
20081;DHT22;10200;49.232;9.222;2023-02-28T02:05:32;0.20;95.90
20081;DHT22;10200;49.232;9.222;2023-02-28T02:08:04;0.20;95.90
20081;DHT22;10200;49.232;9.222;2023-02-28T02:10:41;0.20;95.90
20081;DHT22;10200;49.232;9.222;2023-02-28T02:18:54;0.10;96.10
20081;DHT22;10200;49.232;9.222;2023-02-28T02:24:03;0.10;96.40
20081;DHT22;10200;49.232;9.222;2023-02-28T02:29:37;0.10;96.50
20081;DHT22;10200;49.232;9.222;2023-02-28T02:37:48;0.10;96.70
20081;DHT22;10200;49.232;9.222;2023-02-28T02:40:22;0.00;96.60
20081;DHT22;10200;49.232;9.222;2023-02-28T02:45:45;0.00;96.60
20081;DHT22;10200;49.232;9.222;2023-02-28T02:48:14;0.00;96.80
20081;DHT22;10200;49.232;9.222;2023-02-28T02:50:51;0.00;96.70
20081;DHT22;10200;49.232;9.222;2023-02-28T02:53:22;0.00;96.80
20081;DHT22;10200;49.232;9.222;2023-02-28T02:55:51;0.00;97.20
20081;DHT22;10200;49.232;9.222;2023-02-28T02:58:24;0.00;97.10
20081;DHT22;10200;49.232;9.222;2023-02-28T03:00:55;0.00;96.80
20081;DHT22;10200;49.232;9.222;2023-02-28T03:03:23;0.00;97.00
20081;DHT22;10200;49.232;9.222;2023-02-28T03:06:00;0.00;97.00
20081;DHT22;10200;49.232;9.222;2023-02-28T03:08:26;0.00;97.00
20081;DHT22;10200;49.232;9.222;2023-02-28T03:10:57;0.00;97.00
20081;DHT22;10200;49.232;9.222;2023-02-28T03:13:42;0.00;96.90
20081;DHT22;10200;49.232;9.222;2023-02-28T03:18:52;-0.10;97.10
20081;DHT22;10200;49.232;9.222;2023-02-28T03:21:28;0.00;97.20
20081;DHT22;10200;49.232;9.222;2023-02-28T03:26:39;0.00;97.00
20081;DHT22;10200;49.232;9.222;2023-02-28T03:29:46;0.00;97.20
20081;DHT22;10200;49.232;9.222;2023-02-28T03:32:25;0.00;97.20
20081;DHT22;10200;49.232;9.222;2023-02-28T03:35:14;0.00;97.20
20081;DHT22;10200;49.232;9.222;2023-02-28T03:37:50;0.00;97.00
20081;DHT22;10200;49.232;9.222;2023-02-28T03:40:21;0.00;97.30
20081;DHT22;10200;49.232;9.222;2023-02-28T03:42:50;0.00;97.40
20081;DHT22;10200;49.232;9.222;2023-02-28T03:45:37;0.00;97.20
20081;DHT22;10200;49.232;9.222;2023-02-28T03:50:49;0.00;97.20
20081;DHT22;10200;49.232;9.222;2023-02-28T03:53:31;0.00;97.00
20081;DHT22;10200;49.232;9.222;2023-02-28T03:56:11;0.00;97.20
20081;DHT22;10200;49.232;9.222;2023-02-28T03:59:00;0.00;97.20
20081;DHT22;10200;49.232;9.222;2023-02-28T04:01:35;0.00;97.30
20081;DHT22;10200;49.232;9.222;2023-02-28T04:04:02;0.00;97.60
20081;DHT22;10200;49.232;9.222;2023-02-28T04:06:31;0.00;97.40
20081;DHT22;10200;49.232;9.222;2023-02-28T04:08:57;-0.10;97.40
20081;DHT22;10200;49.232;9.222;2023-02-28T04:11:38;-0.10;97.70
20081;DHT22;10200;49.232;9.222;2023-02-28T04:14:05;-0.10;97.60
20081;DHT22;10200;49.232;9.222;2023-02-28T04:16:32;-0.10;97.90
20081;DHT22;10200;49.232;9.222;2023-02-28T04:18:58;-0.10;98.00
20081;DHT22;10200;49.232;9.222;2023-02-28T04:21:28;-0.10;97.90
20081;DHT22;10200;49.232;9.222;2023-02-28T04:23:54;0.00;97.80
20081;DHT22;10200;49.232;9.222;2023-02-28T04:26:20;0.00;98.20
20081;DHT22;10200;49.232;9.222;2023-02-28T04:28:45;0.00;98.00
20081;DHT22;10200;49.232;9.222;2023-02-28T04:31:11;0.00;98.30
20081;DHT22;10200;49.232;9.222;2023-02-28T04:33:36;0.00;98.20
20081;DHT22;10200;49.232;9.222;2023-02-28T04:36:04;0.00;98.40
20081;DHT22;10200;49.232;9.222;2023-02-28T04:38:33;0.10;98.50
20081;DHT22;10200;49.232;9.222;2023-02-28T04:41:00;0.00;98.40
20081;DHT22;10200;49.232;9.222;2023-02-28T04:43:27;0.10;98.40
20081;DHT22;10200;49.232;9.222;2023-02-28T04:45:54;0.10;98.40
20081;DHT22;10200;49.232;9.222;2023-02-28T04:48:25;0.10;98.40
20081;DHT22;10200;49.232;9.222;2023-02-28T04:50:52;0.10;98.20
20081;DHT22;10200;49.232;9.222;2023-02-28T04:53:18;0.20;98.50
20081;DHT22;10200;49.232;9.222;2023-02-28T04:55:44;0.20;98.20
20081;DHT22;10200;49.232;9.222;2023-02-28T04:58:09;0.20;98.10
20081;DHT22;10200;49.232;9.222;2023-02-28T05:00:35;0.10;97.90
20081;DHT22;10200;49.232;9.222;2023-02-28T05:03:01;0.20;98.00
20081;DHT22;10200;49.232;9.222;2023-02-28T05:05:26;0.20;98.30
20081;DHT22;10200;49.232;9.222;2023-02-28T05:07:52;0.20;98.20
20081;DHT22;10200;49.232;9.222;2023-02-28T05:10:19;0.20;98.50
20081;DHT22;10200;49.232;9.222;2023-02-28T05:12:44;0.20;98.10
20081;DHT22;10200;49.232;9.222;2023-02-28T05:15:13;0.20;98.20
20081;DHT22;10200;49.232;9.222;2023-02-28T05:17:39;0.10;97.60
20081;DHT22;10200;49.232;9.222;2023-02-28T05:20:06;0.10;97.80
20081;DHT22;10200;49.232;9.222;2023-02-28T05:22:31;0.10;97.50
20081;DHT22;10200;49.232;9.222;2023-02-28T05:24:57;0.00;97.40
20081;DHT22;10200;49.232;9.222;2023-02-28T05:27:23;0.00;97.30
20081;DHT22;10200;49.232;9.222;2023-02-28T05:29:48;0.00;97.50
20081;DHT22;10200;49.232;9.222;2023-02-28T05:32:14;-0.10;97.70
20081;DHT22;10200;49.232;9.222;2023-02-28T05:34:41;-0.10;97.90
20081;DHT22;10200;49.232;9.222;2023-02-28T05:37:11;-0.10;98.00
20081;DHT22;10200;49.232;9.222;2023-02-28T05:39:37;-0.10;98.30
20081;DHT22;10200;49.232;9.222;2023-02-28T05:42:04;-0.10;98.40
20081;DHT22;10200;49.232;9.222;2023-02-28T05:44:30;-0.10;98.70
20081;DHT22;10200;49.232;9.222;2023-02-28T05:46:55;-0.10;98.50
20081;DHT22;10200;49.232;9.222;2023-02-28T05:49:21;-0.20;98.70
20081;DHT22;10200;49.232;9.222;2023-02-28T05:51:47;-0.10;98.50
20081;DHT22;10200;49.232;9.222;2023-02-28T05:54:14;-0.10;98.60
20081;DHT22;10200;49.232;9.222;2023-02-28T05:56:40;-0.10;98.60
20081;DHT22;10200;49.232;9.222;2023-02-28T05:59:10;-0.10;98.60
20081;DHT22;10200;49.232;9.222;2023-02-28T06:01:38;-0.10;98.70
20081;DHT22;10200;49.232;9.222;2023-02-28T06:04:05;-0.10;98.80
20081;DHT22;10200;49.232;9.222;2023-02-28T06:06:31;-0.10;98.70
20081;DHT22;10200;49.232;9.222;2023-02-28T06:08:59;-0.10;98.50
20081;DHT22;10200;49.232;9.222;2023-02-28T06:11:26;-0.10;98.60
20081;DHT22;10200;49.232;9.222;2023-02-28T06:13:57;-0.10;98.80
20081;DHT22;10200;49.232;9.222;2023-02-28T06:16:25;-0.10;98.70
20081;DHT22;10200;49.232;9.222;2023-02-28T06:18:51;0.00;98.80
20081;DHT22;10200;49.232;9.222;2023-02-28T06:21:18;0.00;98.90
20081;DHT22;10200;49.232;9.222;2023-02-28T06:23:44;0.00;98.90
20081;DHT22;10200;49.232;9.222;2023-02-28T06:26:10;0.00;98.80
20081;DHT22;10200;49.232;9.222;2023-02-28T06:28:36;0.10;98.70
20081;DHT22;10200;49.232;9.222;2023-02-28T06:31:11;0.00;98.30
20081;DHT22;10200;49.232;9.222;2023-02-28T06:33:38;0.10;98.70
20081;DHT22;10200;49.232;9.222;2023-02-28T06:36:04;0.10;98.20
20081;DHT22;10200;49.232;9.222;2023-02-28T06:38:31;0.00;98.60
20081;DHT22;10200;49.232;9.222;2023-02-28T06:40:58;0.10;98.60
20081;DHT22;10200;49.232;9.222;2023-02-28T06:43:25;0.10;98.50
20081;DHT22;10200;49.232;9.222;2023-02-28T06:45:53;0.10;98.80
20081;DHT22;10200;49.232;9.222;2023-02-28T06:48:19;0.30;98.80
20081;DHT22;10200;49.232;9.222;2023-02-28T06:50:44;0.40;98.70
20081;DHT22;10200;49.232;9.222;2023-02-28T06:53:10;0.50;98.60
20081;DHT22;10200;49.232;9.222;2023-02-28T06:55:37;0.90;99.90
20081;DHT22;10200;49.232;9.222;2023-02-28T06:58:04;1.80;98.50
20081;DHT22;10200;49.232;9.222;2023-02-28T07:00:44;2.70;96.90
20081;DHT22;10200;49.232;9.222;2023-02-28T07:03:11;3.90;93.60
20081;DHT22;10200;49.232;9.222;2023-02-28T07:05:37;4.90;92.20
20081;DHT22;10200;49.232;9.222;2023-02-28T07:08:04;5.80;87.50
20081;DHT22;10200;49.232;9.222;2023-02-28T07:10:30;6.40;80.40
20081;DHT22;10200;49.232;9.222;2023-02-28T07:12:56;6.40;75.20
20081;DHT22;10200;49.232;9.222;2023-02-28T07:15:21;6.70;73.20
20081;DHT22;10200;49.232;9.222;2023-02-28T07:17:47;6.50;69.40
20081;DHT22;10200;49.232;9.222;2023-02-28T07:20:12;5.90;68.30
20081;DHT22;10200;49.232;9.222;2023-02-28T07:22:38;5.20;69.20
20081;DHT22;10200;49.232;9.222;2023-02-28T07:25:04;4.90;71.60
20081;DHT22;10200;49.232;9.222;2023-02-28T07:27:30;5.10;72.50
20081;DHT22;10200;49.232;9.222;2023-02-28T07:29:56;5.60;71.60
20081;DHT22;10200;49.232;9.222;2023-02-28T07:32:22;6.10;72.00
20081;DHT22;10200;49.232;9.222;2023-02-28T07:34:47;6.60;69.20
20081;DHT22;10200;49.232;9.222;2023-02-28T07:37:14;7.00;67.80
20081;DHT22;10200;49.232;9.222;2023-02-28T07:39:42;7.40;76.90
20081;DHT22;10200;49.232;9.222;2023-02-28T07:42:08;7.40;77.40
20081;DHT22;10200;49.232;9.222;2023-02-28T07:44:36;7.70;64.70
20081;DHT22;10200;49.232;9.222;2023-02-28T07:47:06;7.90;63.70
20081;DHT22;10200;49.232;9.222;2023-02-28T07:49:32;8.20;63.00
20081;DHT22;10200;49.232;9.222;2023-02-28T07:51:57;8.40;79.20
20081;DHT22;10200;49.232;9.222;2023-02-28T07:54:23;8.60;77.70
20081;DHT22;10200;49.232;9.222;2023-02-28T07:56:48;8.70;81.60
20081;DHT22;10200;49.232;9.222;2023-02-28T07:59:14;8.80;75.00
20081;DHT22;10200;49.232;9.222;2023-02-28T08:01:40;8.70;75.50
20081;DHT22;10200;49.232;9.222;2023-02-28T08:04:06;8.90;73.30
20081;DHT22;10200;49.232;9.222;2023-02-28T08:06:31;8.80;70.50
20081;DHT22;10200;49.232;9.222;2023-02-28T08:08:57;8.40;65.20
20081;DHT22;10200;49.232;9.222;2023-02-28T08:11:22;8.10;71.90
20081;DHT22;10200;49.232;9.222;2023-02-28T08:13:48;7.90;60.30
20081;DHT22;10200;49.232;9.222;2023-02-28T08:16:14;7.60;71.70
20081;DHT22;10200;49.232;9.222;2023-02-28T08:18:42;7.60;62.80
20081;DHT22;10200;49.232;9.222;2023-02-28T08:21:09;7.60;60.50
20081;DHT22;10200;49.232;9.222;2023-02-28T08:23:35;7.40;59.30
20081;DHT22;10200;49.232;9.222;2023-02-28T08:26:01;7.30;68.80
20081;DHT22;10200;49.232;9.222;2023-02-28T08:28:27;7.30;73.40
20081;DHT22;10200;49.232;9.222;2023-02-28T08:30:53;7.10;59.70
20081;DHT22;10200;49.232;9.222;2023-02-28T08:33:19;7.00;59.80
20081;DHT22;10200;49.232;9.222;2023-02-28T08:35:44;6.70;59.80
20081;DHT22;10200;49.232;9.222;2023-02-28T08:38:10;6.50;60.10
20081;DHT22;10200;49.232;9.222;2023-02-28T08:40:35;6.30;61.20
20081;DHT22;10200;49.232;9.222;2023-02-28T08:43:01;6.10;61.50
20081;DHT22;10200;49.232;9.222;2023-02-28T08:45:27;6.00;62.90
20081;DHT22;10200;49.232;9.222;2023-02-28T08:47:54;6.20;64.10
20081;DHT22;10200;49.232;9.222;2023-02-28T08:50:21;6.50;63.50
20081;DHT22;10200;49.232;9.222;2023-02-28T08:52:46;6.50;61.70
20081;DHT22;10200;49.232;9.222;2023-02-28T08:55:12;6.50;62.20
20081;DHT22;10200;49.232;9.222;2023-02-28T08:57:38;6.30;61.90
20081;DHT22;10200;49.232;9.222;2023-02-28T09:00:04;6.40;62.60
20081;DHT22;10200;49.232;9.222;2023-02-28T09:02:30;6.30;62.10
20081;DHT22;10200;49.232;9.222;2023-02-28T09:04:57;6.30;62.50
20081;DHT22;10200;49.232;9.222;2023-02-28T09:07:23;6.50;64.40
20081;DHT22;10200;49.232;9.222;2023-02-28T09:09:49;6.60;63.00
20081;DHT22;10200;49.232;9.222;2023-02-28T09:12:22;6.80;62.70
20081;DHT22;10200;49.232;9.222;2023-02-28T09:14:48;6.60;61.60
20081;DHT22;10200;49.232;9.222;2023-02-28T09:17:14;6.40;61.10
20081;DHT22;10200;49.232;9.222;2023-02-28T09:19:40;6.20;62.70
20081;DHT22;10200;49.232;9.222;2023-02-28T09:22:06;6.20;63.00
20081;DHT22;10200;49.232;9.222;2023-02-28T09:24:31;6.10;63.00
20081;DHT22;10200;49.232;9.222;2023-02-28T09:26:57;6.00;63.10
20081;DHT22;10200;49.232;9.222;2023-02-28T09:29:22;5.70;63.20
20081;DHT22;10200;49.232;9.222;2023-02-28T09:31:48;5.60;64.40
20081;DHT22;10200;49.232;9.222;2023-02-28T09:34:14;5.50;64.90
20081;DHT22;10200;49.232;9.222;2023-02-28T09:36:41;5.40;64.80
20081;DHT22;10200;49.232;9.222;2023-02-28T09:39:06;5.40;65.50
20081;DHT22;10200;49.232;9.222;2023-02-28T09:41:38;5.30;66.40
20081;DHT22;10200;49.232;9.222;2023-02-28T09:46:51;5.30;65.90
20081;DHT22;10200;49.232;9.222;2023-02-28T09:49:25;5.30;66.00
20081;DHT22;10200;49.232;9.222;2023-02-28T09:52:09;5.30;66.70
20081;DHT22;10200;49.232;9.222;2023-02-28T09:54:35;5.30;67.10
20081;DHT22;10200;49.232;9.222;2023-02-28T09:57:08;5.20;66.40
20081;DHT22;10200;49.232;9.222;2023-02-28T10:02:41;5.00;66.70
20081;DHT22;10200;49.232;9.222;2023-02-28T10:05:15;4.90;67.40
20081;DHT22;10200;49.232;9.222;2023-02-28T10:13:00;4.80;67.70
20081;DHT22;10200;49.232;9.222;2023-02-28T10:15:30;4.70;67.90
20081;DHT22;10200;49.232;9.222;2023-02-28T10:18:06;4.70;68.10
20081;DHT22;10200;49.232;9.222;2023-02-28T10:20:39;4.70;69.30
20081;DHT22;10200;49.232;9.222;2023-02-28T10:23:31;4.80;69.10
20081;DHT22;10200;49.232;9.222;2023-02-28T10:26:01;4.70;68.40
20081;DHT22;10200;49.232;9.222;2023-02-28T10:28:29;4.60;69.10
20081;DHT22;10200;49.232;9.222;2023-02-28T10:30:57;4.50;68.90
20081;DHT22;10200;49.232;9.222;2023-02-28T10:33:24;4.50;69.70
20081;DHT22;10200;49.232;9.222;2023-02-28T10:35:52;4.50;69.70
20081;DHT22;10200;49.232;9.222;2023-02-28T10:38:24;4.60;70.10
20081;DHT22;10200;49.232;9.222;2023-02-28T10:40:50;4.70;70.00
20081;DHT22;10200;49.232;9.222;2023-02-28T10:53:31;4.80;69.50
20081;DHT22;10200;49.232;9.222;2023-02-28T11:01:39;5.10;68.00
20081;DHT22;10200;49.232;9.222;2023-02-28T11:09:46;4.90;67.40
20081;DHT22;10200;49.232;9.222;2023-02-28T11:15:00;4.90;67.50
20081;DHT22;10200;49.232;9.222;2023-02-28T11:17:29;4.90;67.90
20081;DHT22;10200;49.232;9.222;2023-02-28T11:20:03;4.90;67.90
20081;DHT22;10200;49.232;9.222;2023-02-28T11:22:31;5.00;68.40
20081;DHT22;10200;49.232;9.222;2023-02-28T11:25:01;5.10;68.30
20081;DHT22;10200;49.232;9.222;2023-02-28T11:29:56;5.40;67.60
20081;DHT22;10200;49.232;9.222;2023-02-28T11:32:23;5.50;67.50
20081;DHT22;10200;49.232;9.222;2023-02-28T11:37:36;5.60;67.40
20081;DHT22;10200;49.232;9.222;2023-02-28T11:40:08;5.60;67.10
20081;DHT22;10200;49.232;9.222;2023-02-28T11:42:53;5.70;67.00
20081;DHT22;10200;49.232;9.222;2023-02-28T11:51:14;5.80;65.70
20081;DHT22;10200;49.232;9.222;2023-02-28T11:56:19;6.00;65.10
20081;DHT22;10200;49.232;9.222;2023-02-28T12:01:27;5.90;64.70
20081;DHT22;10200;49.232;9.222;2023-02-28T12:04:17;5.70;65.10
20081;DHT22;10200;49.232;9.222;2023-02-28T12:06:58;5.70;65.70
20081;DHT22;10200;49.232;9.222;2023-02-28T12:09:46;5.60;65.80
20081;DHT22;10200;49.232;9.222;2023-02-28T12:21:00;5.80;66.20
20081;DHT22;10200;49.232;9.222;2023-02-28T12:26:26;5.70;66.40
20081;DHT22;10200;49.232;9.222;2023-02-28T12:29:04;5.70;65.80
20081;DHT22;10200;49.232;9.222;2023-02-28T12:31:41;5.70;66.40
20081;DHT22;10200;49.232;9.222;2023-02-28T12:34:13;5.70;66.00
20081;DHT22;10200;49.232;9.222;2023-02-28T12:36:41;5.70;66.40
20081;DHT22;10200;49.232;9.222;2023-02-28T12:39:20;5.80;66.80
20081;DHT22;10200;49.232;9.222;2023-02-28T12:41:51;5.90;66.80
20081;DHT22;10200;49.232;9.222;2023-02-28T12:44:27;6.00;66.00
20081;DHT22;10200;49.232;9.222;2023-02-28T12:46:56;6.10;65.70
20081;DHT22;10200;49.232;9.222;2023-02-28T12:51:59;6.10;64.90
20081;DHT22;10200;49.232;9.222;2023-02-28T12:54:40;6.20;65.20
20081;DHT22;10200;49.232;9.222;2023-02-28T13:10:51;6.30;63.90
20081;DHT22;10200;49.232;9.222;2023-02-28T13:13:25;6.20;63.90
20081;DHT22;10200;49.232;9.222;2023-02-28T13:16:10;6.20;64.80
20081;DHT22;10200;49.232;9.222;2023-02-28T13:18:45;6.20;64.10
20081;DHT22;10200;49.232;9.222;2023-02-28T13:34:31;6.20;63.70
20081;DHT22;10200;49.232;9.222;2023-02-28T13:39:57;6.00;64.10
20081;DHT22;10200;49.232;9.222;2023-02-28T13:42:32;6.00;64.50
20081;DHT22;10200;49.232;9.222;2023-02-28T13:47:39;6.10;65.10
20081;DHT22;10200;49.232;9.222;2023-02-28T13:55:36;6.30;64.80
20081;DHT22;10200;49.232;9.222;2023-02-28T14:03:46;6.10;63.40
20081;DHT22;10200;49.232;9.222;2023-02-28T14:06:26;6.10;64.10
20081;DHT22;10200;49.232;9.222;2023-02-28T14:11:35;6.20;64.30
20081;DHT22;10200;49.232;9.222;2023-02-28T14:14:03;6.20;63.90
20081;DHT22;10200;49.232;9.222;2023-02-28T14:16:45;6.20;64.10
20081;DHT22;10200;49.232;9.222;2023-02-28T14:21:58;6.20;64.30
20081;DHT22;10200;49.232;9.222;2023-02-28T14:33:22;6.30;64.10
20081;DHT22;10200;49.232;9.222;2023-02-28T14:38:27;6.30;64.10
20081;DHT22;10200;49.232;9.222;2023-02-28T14:40:56;6.20;64.00
20081;DHT22;10200;49.232;9.222;2023-02-28T14:43:27;6.20;64.80
20081;DHT22;10200;49.232;9.222;2023-02-28T14:45:59;6.30;64.50
20081;DHT22;10200;49.232;9.222;2023-02-28T14:48:26;6.30;64.50
20081;DHT22;10200;49.232;9.222;2023-02-28T14:50:58;6.30;64.10
20081;DHT22;10200;49.232;9.222;2023-02-28T14:53:27;6.30;64.20
20081;DHT22;10200;49.232;9.222;2023-02-28T14:55:53;6.30;64.30
20081;DHT22;10200;49.232;9.222;2023-02-28T15:00:53;6.30;63.80
20081;DHT22;10200;49.232;9.222;2023-02-28T15:03:31;6.30;64.00
20081;DHT22;10200;49.232;9.222;2023-02-28T15:05:59;6.20;63.80
20081;DHT22;10200;49.232;9.222;2023-02-28T15:08:26;6.20;64.20
20081;DHT22;10200;49.232;9.222;2023-02-28T15:11:09;6.30;64.30
20081;DHT22;10200;49.232;9.222;2023-02-28T15:13:52;6.30;65.30
20081;DHT22;10200;49.232;9.222;2023-02-28T15:16:26;6.30;64.30
20081;DHT22;10200;49.232;9.222;2023-02-28T15:19:06;6.30;64.40
20081;DHT22;10200;49.232;9.222;2023-02-28T15:21:38;6.40;64.70
20081;DHT22;10200;49.232;9.222;2023-02-28T15:24:41;6.40;64.30
20081;DHT22;10200;49.232;9.222;2023-02-28T15:27:02;6.30;64.30
20081;DHT22;10200;49.232;9.222;2023-02-28T15:29:30;6.30;64.20
20081;DHT22;10200;49.232;9.222;2023-02-28T15:32:02;6.20;64.50
20081;DHT22;10200;49.232;9.222;2023-02-28T15:34:43;6.20;64.90
20081;DHT22;10200;49.232;9.222;2023-02-28T15:37:28;6.20;65.10
20081;DHT22;10200;49.232;9.222;2023-02-28T15:39:58;6.20;65.10
20081;DHT22;10200;49.232;9.222;2023-02-28T15:42:30;6.20;65.30
20081;DHT22;10200;49.232;9.222;2023-02-28T15:44:56;6.20;65.20
20081;DHT22;10200;49.232;9.222;2023-02-28T15:47:24;6.20;65.10
20081;DHT22;10200;49.232;9.222;2023-02-28T15:49:58;6.20;65.40
20081;DHT22;10200;49.232;9.222;2023-02-28T15:54:53;6.10;65.30
20081;DHT22;10200;49.232;9.222;2023-02-28T15:57:29;6.00;65.30
20081;DHT22;10200;49.232;9.222;2023-02-28T15:59:57;6.00;65.60
20081;DHT22;10200;49.232;9.222;2023-02-28T16:02:36;5.90;65.70
20081;DHT22;10200;49.232;9.222;2023-02-28T16:07:28;5.90;66.10
20081;DHT22;10200;49.232;9.222;2023-02-28T16:09:54;5.80;66.40
20081;DHT22;10200;49.232;9.222;2023-02-28T16:12:21;5.80;66.60
20081;DHT22;10200;49.232;9.222;2023-02-28T16:14:50;5.90;66.70
20081;DHT22;10200;49.232;9.222;2023-02-28T16:17:21;5.70;67.00
20081;DHT22;10200;49.232;9.222;2023-02-28T16:19:47;5.70;67.00
20081;DHT22;10200;49.232;9.222;2023-02-28T16:22:13;5.70;67.50
20081;DHT22;10200;49.232;9.222;2023-02-28T16:24:38;5.60;67.30
20081;DHT22;10200;49.232;9.222;2023-02-28T16:27:05;5.60;67.60
20081;DHT22;10200;49.232;9.222;2023-02-28T16:29:34;5.50;67.60
20081;DHT22;10200;49.232;9.222;2023-02-28T16:32:00;5.50;67.80
20081;DHT22;10200;49.232;9.222;2023-02-28T16:34:26;5.40;68.20
20081;DHT22;10200;49.232;9.222;2023-02-28T16:36:53;5.40;68.10
20081;DHT22;10200;49.232;9.222;2023-02-28T16:39:18;5.30;68.40
20081;DHT22;10200;49.232;9.222;2023-02-28T16:41:48;5.30;69.40
20081;DHT22;10200;49.232;9.222;2023-02-28T16:44:35;5.20;68.70
20081;DHT22;10200;49.232;9.222;2023-02-28T16:47:02;5.20;69.00
20081;DHT22;10200;49.232;9.222;2023-02-28T16:49:28;5.10;69.20
20081;DHT22;10200;49.232;9.222;2023-02-28T16:51:54;5.10;69.10
20081;DHT22;10200;49.232;9.222;2023-02-28T16:54:19;5.10;69.30
20081;DHT22;10200;49.232;9.222;2023-02-28T16:56:47;5.10;69.50
20081;DHT22;10200;49.232;9.222;2023-02-28T16:59:21;5.00;69.50
20081;DHT22;10200;49.232;9.222;2023-02-28T17:01:46;5.00;69.60
20081;DHT22;10200;49.232;9.222;2023-02-28T17:04:12;4.90;69.70
20081;DHT22;10200;49.232;9.222;2023-02-28T17:06:39;4.90;69.80
20081;DHT22;10200;49.232;9.222;2023-02-28T17:09:05;4.90;70.10
20081;DHT22;10200;49.232;9.222;2023-02-28T17:11:33;5.10;70.30
20081;DHT22;10200;49.232;9.222;2023-02-28T17:13:59;4.80;70.30
20081;DHT22;10200;49.232;9.222;2023-02-28T17:16:29;4.70;70.30
20081;DHT22;10200;49.232;9.222;2023-02-28T17:19:07;4.70;70.60
20081;DHT22;10200;49.232;9.222;2023-02-28T17:21:36;4.70;70.90
20081;DHT22;10200;49.232;9.222;2023-02-28T17:24:02;4.60;70.90
20081;DHT22;10200;49.232;9.222;2023-02-28T17:26:28;4.60;71.10
20081;DHT22;10200;49.232;9.222;2023-02-28T17:28:55;4.50;71.20
20081;DHT22;10200;49.232;9.222;2023-02-28T17:31:26;4.50;71.30
20081;DHT22;10200;49.232;9.222;2023-02-28T17:33:53;4.50;71.40
20081;DHT22;10200;49.232;9.222;2023-02-28T17:36:24;4.40;71.60
20081;DHT22;10200;49.232;9.222;2023-02-28T17:38:52;4.40;71.50
20081;DHT22;10200;49.232;9.222;2023-02-28T17:41:18;4.40;71.60
20081;DHT22;10200;49.232;9.222;2023-02-28T17:43:44;4.30;71.60
20081;DHT22;10200;49.232;9.222;2023-02-28T17:46:20;4.30;71.70
20081;DHT22;10200;49.232;9.222;2023-02-28T17:48:47;4.20;71.90
20081;DHT22;10200;49.232;9.222;2023-02-28T17:51:14;4.20;72.10
20081;DHT22;10200;49.232;9.222;2023-02-28T17:53:39;4.30;72.40
20081;DHT22;10200;49.232;9.222;2023-02-28T17:56:27;4.20;72.30
20081;DHT22;10200;49.232;9.222;2023-02-28T17:58:54;4.20;72.30
20081;DHT22;10200;49.232;9.222;2023-02-28T18:01:20;4.20;72.50
20081;DHT22;10200;49.232;9.222;2023-02-28T18:03:47;4.10;72.60
20081;DHT22;10200;49.232;9.222;2023-02-28T18:06:19;4.10;72.70
20081;DHT22;10200;49.232;9.222;2023-02-28T18:08:46;4.10;73.00
20081;DHT22;10200;49.232;9.222;2023-02-28T18:11:12;4.00;73.00
20081;DHT22;10200;49.232;9.222;2023-02-28T18:13:51;4.00;73.10
20081;DHT22;10200;49.232;9.222;2023-02-28T18:16:20;4.00;73.50
20081;DHT22;10200;49.232;9.222;2023-02-28T18:18:47;4.00;73.60
20081;DHT22;10200;49.232;9.222;2023-02-28T18:21:14;3.90;73.30
20081;DHT22;10200;49.232;9.222;2023-02-28T18:23:41;3.90;73.50
20081;DHT22;10200;49.232;9.222;2023-02-28T18:26:13;3.80;73.60
20081;DHT22;10200;49.232;9.222;2023-02-28T18:28:39;3.80;73.80
20081;DHT22;10200;49.232;9.222;2023-02-28T18:31:07;3.80;73.90
20081;DHT22;10200;49.232;9.222;2023-02-28T18:33:33;3.70;74.10
20081;DHT22;10200;49.232;9.222;2023-02-28T18:35:59;3.70;74.20
20081;DHT22;10200;49.232;9.222;2023-02-28T18:38:25;3.70;74.40
20081;DHT22;10200;49.232;9.222;2023-02-28T18:40:59;3.60;74.60